You are listening to:
EHVL CTAF/Range Control - Vlieland, Netherlands

EHVL 111525Z AUTO 31014KT 9999 SCT290 16/11 Q1025 BLU

If stream doesn't start automatically press the play button
If stream stops then reload player then press play